sensor_id;sensor_type;location;lat;lon;timestamp;P1;durP1;ratioP1;P2;durP2;ratioP2
22425;SDS011;11380;50.822;15.790;2023-05-20T00:00:51;63.70;;;56.83;;
22425;SDS011;11380;50.822;15.790;2023-05-20T00:05:59;64.17;;;57.20;;
22425;SDS011;11380;50.822;15.790;2023-05-20T00:11:06;66.20;;;58.17;;
22425;SDS011;11380;50.822;15.790;2023-05-20T00:16:13;64.87;;;57.77;;
22425;SDS011;11380;50.822;15.790;2023-05-20T00:21:20;66.87;;;59.60;;
22425;SDS011;11380;50.822;15.790;2023-05-20T00:26:28;65.47;;;58.30;;
22425;SDS011;11380;50.822;15.790;2023-05-20T00:31:35;66.10;;;58.03;;
22425;SDS011;11380;50.822;15.790;2023-05-20T00:36:43;65.03;;;57.43;;
22425;SDS011;11380;50.822;15.790;2023-05-20T00:46:56;64.23;;;57.23;;
22425;SDS011;11380;50.822;15.790;2023-05-20T00:52:03;63.30;;;56.53;;
22425;SDS011;11380;50.822;15.790;2023-05-20T00:57:13;64.87;;;57.77;;
22425;SDS011;11380;50.822;15.790;2023-05-20T01:02:21;64.55;;;57.55;;
22425;SDS011;11380;50.822;15.790;2023-05-20T01:07:30;61.93;;;55.40;;
22425;SDS011;11380;50.822;15.790;2023-05-20T01:12:45;64.03;;;57.07;;
22425;SDS011;11380;50.822;15.790;2023-05-20T01:17:54;64.07;;;57.07;;
22425;SDS011;11380;50.822;15.790;2023-05-20T01:23:05;64.50;;;56.97;;
22425;SDS011;11380;50.822;15.790;2023-05-20T01:28:13;63.52;;;56.58;;
22425;SDS011;11380;50.822;15.790;2023-05-20T01:33:21;64.10;;;57.20;;
22425;SDS011;11380;50.822;15.790;2023-05-20T01:38:31;59.27;;;53.13;;
22425;SDS011;11380;50.822;15.790;2023-05-20T01:43:40;62.97;;;56.20;;
22425;SDS011;11380;50.822;15.790;2023-05-20T01:48:47;62.47;;;55.80;;
22425;SDS011;11380;50.822;15.790;2023-05-20T01:53:54;60.83;;;54.17;;
22425;SDS011;11380;50.822;15.790;2023-05-20T01:59:02;62.43;;;55.93;;
22425;SDS011;11380;50.822;15.790;2023-05-20T02:04:09;62.13;;;55.53;;
22425;SDS011;11380;50.822;15.790;2023-05-20T02:09:17;61.80;;;55.07;;
22425;SDS011;11380;50.822;15.790;2023-05-20T02:14:24;60.63;;;54.20;;
22425;SDS011;11380;50.822;15.790;2023-05-20T02:19:31;61.00;;;54.73;;
22425;SDS011;11380;50.822;15.790;2023-05-20T02:24:38;61.90;;;55.17;;
22425;SDS011;11380;50.822;15.790;2023-05-20T02:29:47;61.60;;;54.97;;
22425;SDS011;11380;50.822;15.790;2023-05-20T02:34:55;62.80;;;56.07;;
22425;SDS011;11380;50.822;15.790;2023-05-20T02:40:03;61.23;;;54.63;;
22425;SDS011;11380;50.822;15.790;2023-05-20T02:45:13;61.68;;;55.28;;
22425;SDS011;11380;50.822;15.790;2023-05-20T02:50:21;62.20;;;55.57;;
22425;SDS011;11380;50.822;15.790;2023-05-20T02:55:28;62.70;;;56.20;;
22425;SDS011;11380;50.822;15.790;2023-05-20T03:00:39;61.23;;;54.77;;
22425;SDS011;11380;50.822;15.790;2023-05-20T03:05:48;63.45;;;55.98;;
22425;SDS011;11380;50.822;15.790;2023-05-20T03:10:55;61.87;;;55.40;;
22425;SDS011;11380;50.822;15.790;2023-05-20T03:16:03;62.20;;;55.50;;
22425;SDS011;11380;50.822;15.790;2023-05-20T03:21:11;62.50;;;55.83;;
22425;SDS011;11380;50.822;15.790;2023-05-20T03:26:18;61.30;;;54.73;;
22425;SDS011;11380;50.822;15.790;2023-05-20T03:31:26;61.90;;;55.33;;
22425;SDS011;11380;50.822;15.790;2023-05-20T03:36:33;61.63;;;55.20;;
22425;SDS011;11380;50.822;15.790;2023-05-20T03:41:40;61.23;;;54.83;;
22425;SDS011;11380;50.822;15.790;2023-05-20T03:46:47;61.73;;;55.17;;
22425;SDS011;11380;50.822;15.790;2023-05-20T03:51:54;62.30;;;55.77;;
22425;SDS011;11380;50.822;15.790;2023-05-20T03:57:01;62.53;;;55.63;;
22425;SDS011;11380;50.822;15.790;2023-05-20T04:02:09;61.37;;;54.83;;
22425;SDS011;11380;50.822;15.790;2023-05-20T04:07:16;60.40;;;54.08;;
22425;SDS011;11380;50.822;15.790;2023-05-20T04:12:23;62.53;;;55.88;;
22425;SDS011;11380;50.822;15.790;2023-05-20T04:17:32;62.83;;;56.10;;
22425;SDS011;11380;50.822;15.790;2023-05-20T04:22:40;61.80;;;55.20;;
22425;SDS011;11380;50.822;15.790;2023-05-20T04:27:48;63.30;;;56.50;;
22425;SDS011;11380;50.822;15.790;2023-05-20T04:32:56;63.53;;;56.80;;
22425;SDS011;11380;50.822;15.790;2023-05-20T04:38:05;64.17;;;57.10;;
22425;SDS011;11380;50.822;15.790;2023-05-20T04:43:13;63.77;;;56.77;;
22425;SDS011;11380;50.822;15.790;2023-05-20T04:48:21;65.10;;;57.27;;
22425;SDS011;11380;50.822;15.790;2023-05-20T04:53:28;63.65;;;56.65;;
22425;SDS011;11380;50.822;15.790;2023-05-20T04:58:37;64.30;;;57.17;;
22425;SDS011;11380;50.822;15.790;2023-05-20T05:03:46;64.70;;;57.30;;
22425;SDS011;11380;50.822;15.790;2023-05-20T05:08:53;66.17;;;57.87;;
22425;SDS011;11380;50.822;15.790;2023-05-20T05:14:00;65.70;;;57.93;;
22425;SDS011;11380;50.822;15.790;2023-05-20T05:19:07;64.80;;;57.00;;
22425;SDS011;11380;50.822;15.790;2023-05-20T05:24:14;65.28;;;57.58;;
22425;SDS011;11380;50.822;15.790;2023-05-20T05:29:21;69.80;;;58.17;;
22425;SDS011;11380;50.822;15.790;2023-05-20T05:34:28;64.20;;;56.45;;
22425;SDS011;11380;50.822;15.790;2023-05-20T05:39:35;65.44;;;57.32;;
22425;SDS011;11380;50.822;15.790;2023-05-20T05:44:42;63.77;;;56.70;;
22425;SDS011;11380;50.822;15.790;2023-05-20T05:54:55;62.35;;;55.70;;
22425;SDS011;11380;50.822;15.790;2023-05-20T06:00:02;63.60;;;56.77;;
22425;SDS011;11380;50.822;15.790;2023-05-20T06:05:10;65.40;;;57.87;;
22425;SDS011;11380;50.822;15.790;2023-05-20T06:10:18;67.05;;;57.20;;
22425;SDS011;11380;50.822;15.790;2023-05-20T06:15:25;60.23;;;53.75;;
22425;SDS011;11380;50.822;15.790;2023-05-20T06:20:32;61.07;;;54.47;;
22425;SDS011;11380;50.822;15.790;2023-05-20T06:25:40;62.40;;;55.57;;
22425;SDS011;11380;50.822;15.790;2023-05-20T06:30:47;63.10;;;56.00;;
22425;SDS011;11380;50.822;15.790;2023-05-20T06:35:54;57.95;;;51.50;;
22425;SDS011;11380;50.822;15.790;2023-05-20T06:41:02;63.87;;;56.90;;
22425;SDS011;11380;50.822;15.790;2023-05-20T06:46:09;64.30;;;57.27;;
22425;SDS011;11380;50.822;15.790;2023-05-20T06:51:17;64.23;;;57.30;;
22425;SDS011;11380;50.822;15.790;2023-05-20T06:56:25;64.45;;;57.38;;
22425;SDS011;11380;50.822;15.790;2023-05-20T07:01:32;66.57;;;56.63;;
22425;SDS011;11380;50.822;15.790;2023-05-20T07:06:39;65.43;;;57.77;;
22425;SDS011;11380;50.822;15.790;2023-05-20T07:11:46;64.30;;;57.00;;
22425;SDS011;11380;50.822;15.790;2023-05-20T07:16:53;67.67;;;58.23;;
22425;SDS011;11380;50.822;15.790;2023-05-20T07:22:00;70.90;;;58.00;;
22425;SDS011;11380;50.822;15.790;2023-05-20T07:32:16;67.85;;;57.73;;
22425;SDS011;11380;50.822;15.790;2023-05-20T07:37:24;68.27;;;58.23;;
22425;SDS011;11380;50.822;15.790;2023-05-20T07:42:31;66.90;;;57.57;;
22425;SDS011;11380;50.822;15.790;2023-05-20T07:47:38;70.80;;;58.87;;
22425;SDS011;11380;50.822;15.790;2023-05-20T07:52:45;68.47;;;58.70;;
22425;SDS011;11380;50.822;15.790;2023-05-20T07:57:55;69.40;;;58.70;;
22425;SDS011;11380;50.822;15.790;2023-05-20T08:03:02;71.93;;;59.00;;
22425;SDS011;11380;50.822;15.790;2023-05-20T08:08:13;70.10;;;58.67;;
22425;SDS011;11380;50.822;15.790;2023-05-20T08:13:21;71.20;;;59.10;;
22425;SDS011;11380;50.822;15.790;2023-05-20T08:18:30;72.23;;;60.00;;
22425;SDS011;11380;50.822;15.790;2023-05-20T08:23:41;73.00;;;59.47;;
22425;SDS011;11380;50.822;15.790;2023-05-20T08:28:47;75.03;;;60.17;;
22425;SDS011;11380;50.822;15.790;2023-05-20T08:33:54;70.27;;;58.60;;
22425;SDS011;11380;50.822;15.790;2023-05-20T08:39:02;71.97;;;60.03;;
22425;SDS011;11380;50.822;15.790;2023-05-20T08:44:09;70.47;;;59.50;;
22425;SDS011;11380;50.822;15.790;2023-05-20T08:49:16;73.83;;;60.63;;
22425;SDS011;11380;50.822;15.790;2023-05-20T08:54:24;74.50;;;60.53;;
22425;SDS011;11380;50.822;15.790;2023-05-20T08:59:36;72.00;;;60.17;;
22425;SDS011;11380;50.822;15.790;2023-05-20T09:04:47;76.37;;;59.80;;
22425;SDS011;11380;50.822;15.790;2023-05-20T09:09:55;73.30;;;59.07;;
22425;SDS011;11380;50.822;15.790;2023-05-20T09:15:03;73.37;;;60.00;;
22425;SDS011;11380;50.822;15.790;2023-05-20T09:20:13;73.60;;;60.97;;
22425;SDS011;11380;50.822;15.790;2023-05-20T09:25:21;74.40;;;60.57;;
22425;SDS011;11380;50.822;15.790;2023-05-20T09:30:28;72.60;;;60.43;;
22425;SDS011;11380;50.822;15.790;2023-05-20T09:35:38;75.30;;;61.30;;
22425;SDS011;11380;50.822;15.790;2023-05-20T09:40:46;75.37;;;61.30;;
22425;SDS011;11380;50.822;15.790;2023-05-20T09:45:54;76.77;;;61.03;;
22425;SDS011;11380;50.822;15.790;2023-05-20T09:51:04;76.17;;;61.27;;
22425;SDS011;11380;50.822;15.790;2023-05-20T09:56:13;79.07;;;62.17;;
22425;SDS011;11380;50.822;15.790;2023-05-20T10:01:20;75.87;;;61.53;;
22425;SDS011;11380;50.822;15.790;2023-05-20T10:17:53;74.70;;;61.10;;
22425;SDS011;11380;50.822;15.790;2023-05-20T10:23:27;79.07;;;62.77;;
22425;SDS011;11380;50.822;15.790;2023-05-20T10:28:36;80.07;;;62.37;;
22425;SDS011;11380;50.822;15.790;2023-05-20T10:33:46;77.93;;;62.10;;
22425;SDS011;11380;50.822;15.790;2023-05-20T10:39:01;77.27;;;62.83;;
22425;SDS011;11380;50.822;15.790;2023-05-20T10:44:05;80.10;;;63.30;;
22425;SDS011;11380;50.822;15.790;2023-05-20T10:49:17;75.73;;;60.57;;
22425;SDS011;11380;50.822;15.790;2023-05-20T10:54:27;75.78;;;61.95;;
22425;SDS011;11380;50.822;15.790;2023-05-20T10:59:39;77.13;;;62.03;;
22425;SDS011;11380;50.822;15.790;2023-05-20T11:04:47;81.53;;;63.23;;
22425;SDS011;11380;50.822;15.790;2023-05-20T11:09:55;79.50;;;63.33;;
22425;SDS011;11380;50.822;15.790;2023-05-20T11:15:03;80.27;;;64.70;;
22425;SDS011;11380;50.822;15.790;2023-05-20T11:20:13;81.30;;;65.27;;
22425;SDS011;11380;50.822;15.790;2023-05-20T11:25:21;81.60;;;63.10;;
22425;SDS011;11380;50.822;15.790;2023-05-20T11:30:30;80.83;;;63.87;;
22425;SDS011;11380;50.822;15.790;2023-05-20T11:35:43;80.77;;;64.17;;
22425;SDS011;11380;50.822;15.790;2023-05-20T11:40:52;84.10;;;65.97;;
22425;SDS011;11380;50.822;15.790;2023-05-20T11:46:01;83.67;;;66.10;;
22425;SDS011;11380;50.822;15.790;2023-05-20T11:51:10;84.30;;;66.43;;
22425;SDS011;11380;50.822;15.790;2023-05-20T11:56:18;85.58;;;66.28;;
22425;SDS011;11380;50.822;15.790;2023-05-20T12:01:26;84.77;;;65.55;;
22425;SDS011;11380;50.822;15.790;2023-05-20T12:06:37;84.87;;;65.53;;
22425;SDS011;11380;50.822;15.790;2023-05-20T12:11:47;82.57;;;66.23;;
22425;SDS011;11380;50.822;15.790;2023-05-20T12:16:55;86.07;;;65.27;;
22425;SDS011;11380;50.822;15.790;2023-05-20T12:22:04;87.55;;;67.10;;
22425;SDS011;11380;50.822;15.790;2023-05-20T12:27:13;83.87;;;66.50;;
22425;SDS011;11380;50.822;15.790;2023-05-20T12:32:20;81.17;;;65.28;;
22425;SDS011;11380;50.822;15.790;2023-05-20T12:37:28;85.92;;;66.50;;
22425;SDS011;11380;50.822;15.790;2023-05-20T12:42:38;81.27;;;65.57;;
22425;SDS011;11380;50.822;15.790;2023-05-20T12:47:47;83.17;;;65.90;;
22425;SDS011;11380;50.822;15.790;2023-05-20T12:52:54;81.90;;;65.20;;
22425;SDS011;11380;50.822;15.790;2023-05-20T12:58:03;81.87;;;65.75;;
22425;SDS011;11380;50.822;15.790;2023-05-20T13:03:14;82.27;;;64.10;;
22425;SDS011;11380;50.822;15.790;2023-05-20T13:08:22;81.25;;;63.98;;
22425;SDS011;11380;50.822;15.790;2023-05-20T13:13:31;80.30;;;63.20;;
22425;SDS011;11380;50.822;15.790;2023-05-20T13:18:38;79.60;;;63.83;;
22425;SDS011;11380;50.822;15.790;2023-05-20T13:23:46;82.03;;;64.90;;
22425;SDS011;11380;50.822;15.790;2023-05-20T13:28:54;80.42;;;65.40;;
22425;SDS011;11380;50.822;15.790;2023-05-20T13:34:03;81.17;;;64.85;;
22425;SDS011;11380;50.822;15.790;2023-05-20T13:39:11;82.10;;;64.33;;
22425;SDS011;11380;50.822;15.790;2023-05-20T13:44:20;82.63;;;65.10;;
22425;SDS011;11380;50.822;15.790;2023-05-20T13:49:28;76.92;;;63.10;;
22425;SDS011;11380;50.822;15.790;2023-05-20T13:54:34;80.27;;;63.43;;
22425;SDS011;11380;50.822;15.790;2023-05-20T13:59:42;79.47;;;63.07;;
22425;SDS011;11380;50.822;15.790;2023-05-20T14:04:49;79.97;;;63.50;;
22425;SDS011;11380;50.822;15.790;2023-05-20T14:09:56;78.17;;;63.07;;
22425;SDS011;11380;50.822;15.790;2023-05-20T14:15:04;76.27;;;62.60;;
22425;SDS011;11380;50.822;15.790;2023-05-20T14:20:14;75.07;;;62.33;;
22425;SDS011;11380;50.822;15.790;2023-05-20T14:25:21;75.00;;;61.53;;
22425;SDS011;11380;50.822;15.790;2023-05-20T14:30:28;77.83;;;62.67;;
22425;SDS011;11380;50.822;15.790;2023-05-20T14:35:36;74.80;;;61.17;;
22425;SDS011;11380;50.822;15.790;2023-05-20T14:40:43;74.37;;;61.33;;
22425;SDS011;11380;50.822;15.790;2023-05-20T14:45:51;80.47;;;62.77;;
22425;SDS011;11380;50.822;15.790;2023-05-20T14:50:59;74.65;;;62.33;;
22425;SDS011;11380;50.822;15.790;2023-05-20T14:56:06;79.93;;;62.90;;
22425;SDS011;11380;50.822;15.790;2023-05-20T15:01:14;73.55;;;60.98;;
22425;SDS011;11380;50.822;15.790;2023-05-20T15:06:22;77.73;;;63.17;;
22425;SDS011;11380;50.822;15.790;2023-05-20T15:11:31;74.35;;;62.20;;
22425;SDS011;11380;50.822;15.790;2023-05-20T15:16:38;75.90;;;61.70;;
22425;SDS011;11380;50.822;15.790;2023-05-20T15:21:45;75.27;;;61.90;;
22425;SDS011;11380;50.822;15.790;2023-05-20T15:26:55;74.43;;;61.80;;
22425;SDS011;11380;50.822;15.790;2023-05-20T15:32:02;79.10;;;62.93;;
22425;SDS011;11380;50.822;15.790;2023-05-20T15:37:11;78.10;;;64.55;;
22425;SDS011;11380;50.822;15.790;2023-05-20T15:42:18;78.75;;;63.60;;
22425;SDS011;11380;50.822;15.790;2023-05-20T15:47:26;77.43;;;63.57;;
22425;SDS011;11380;50.822;15.790;2023-05-20T15:52:33;77.40;;;62.70;;
22425;SDS011;11380;50.822;15.790;2023-05-20T15:57:41;78.47;;;63.90;;
22425;SDS011;11380;50.822;15.790;2023-05-20T16:02:48;80.00;;;65.40;;
22425;SDS011;11380;50.822;15.790;2023-05-20T16:07:59;78.67;;;65.45;;
22425;SDS011;11380;50.822;15.790;2023-05-20T16:13:06;77.80;;;64.40;;
22425;SDS011;11380;50.822;15.790;2023-05-20T16:18:15;78.23;;;64.70;;
22425;SDS011;11380;50.822;15.790;2023-05-20T16:23:22;82.40;;;63.98;;
22425;SDS011;11380;50.822;15.790;2023-05-20T16:28:29;83.62;;;65.35;;
22425;SDS011;11380;50.822;15.790;2023-05-20T16:33:38;80.53;;;65.07;;
22425;SDS011;11380;50.822;15.790;2023-05-20T16:38:45;79.33;;;63.57;;
22425;SDS011;11380;50.822;15.790;2023-05-20T16:43:52;85.73;;;68.93;;
22425;SDS011;11380;50.822;15.790;2023-05-20T16:48:58;83.83;;;66.47;;
22425;SDS011;11380;50.822;15.790;2023-05-20T16:54:06;83.78;;;62.88;;
22425;SDS011;11380;50.822;15.790;2023-05-20T16:59:14;81.83;;;65.23;;
22425;SDS011;11380;50.822;15.790;2023-05-20T17:04:22;81.15;;;63.33;;
22425;SDS011;11380;50.822;15.790;2023-05-20T17:09:29;83.90;;;65.77;;
22425;SDS011;11380;50.822;15.790;2023-05-20T17:14:37;81.20;;;65.83;;
22425;SDS011;11380;50.822;15.790;2023-05-20T17:19:44;82.03;;;65.50;;
22425;SDS011;11380;50.822;15.790;2023-05-20T17:24:52;80.93;;;64.77;;
22425;SDS011;11380;50.822;15.790;2023-05-20T17:30:00;81.50;;;65.43;;
22425;SDS011;11380;50.822;15.790;2023-05-20T17:35:07;88.23;;;69.07;;
22425;SDS011;11380;50.822;15.790;2023-05-20T17:40:14;85.50;;;68.03;;
22425;SDS011;11380;50.822;15.790;2023-05-20T17:45:21;84.30;;;66.43;;
22425;SDS011;11380;50.822;15.790;2023-05-20T17:50:28;81.97;;;65.83;;
22425;SDS011;11380;50.822;15.790;2023-05-20T17:55:35;81.27;;;65.13;;
22425;SDS011;11380;50.822;15.790;2023-05-20T18:00:44;78.57;;;64.57;;
22425;SDS011;11380;50.822;15.790;2023-05-20T18:05:51;81.17;;;65.90;;
22425;SDS011;11380;50.822;15.790;2023-05-20T18:11:00;78.87;;;63.63;;
22425;SDS011;11380;50.822;15.790;2023-05-20T18:16:07;80.70;;;65.40;;
22425;SDS011;11380;50.822;15.790;2023-05-20T18:21:15;87.30;;;65.15;;
22425;SDS011;11380;50.822;15.790;2023-05-20T18:26:22;80.55;;;63.87;;
22425;SDS011;11380;50.822;15.790;2023-05-20T18:31:32;79.97;;;64.80;;
22425;SDS011;11380;50.822;15.790;2023-05-20T18:36:40;78.03;;;65.63;;
22425;SDS011;11380;50.822;15.790;2023-05-20T18:41:46;77.23;;;64.00;;
22425;SDS011;11380;50.822;15.790;2023-05-20T18:46:54;78.17;;;64.80;;
22425;SDS011;11380;50.822;15.790;2023-05-20T18:52:02;76.93;;;64.63;;
22425;SDS011;11380;50.822;15.790;2023-05-20T18:57:09;76.40;;;63.37;;
22425;SDS011;11380;50.822;15.790;2023-05-20T19:02:17;76.63;;;63.90;;
22425;SDS011;11380;50.822;15.790;2023-05-20T19:07:24;77.10;;;64.35;;
22425;SDS011;11380;50.822;15.790;2023-05-20T19:12:31;79.22;;;64.85;;
22425;SDS011;11380;50.822;15.790;2023-05-20T19:17:41;75.70;;;63.23;;
22425;SDS011;11380;50.822;15.790;2023-05-20T19:22:48;80.27;;;64.60;;
22425;SDS011;11380;50.822;15.790;2023-05-20T19:27:56;76.03;;;63.27;;
22425;SDS011;11380;50.822;15.790;2023-05-20T19:33:04;78.67;;;64.83;;
22425;SDS011;11380;50.822;15.790;2023-05-20T19:38:11;79.00;;;64.57;;
22425;SDS011;11380;50.822;15.790;2023-05-20T19:43:18;80.52;;;65.46;;
22425;SDS011;11380;50.822;15.790;2023-05-20T19:48:27;77.45;;;64.97;;
22425;SDS011;11380;50.822;15.790;2023-05-20T19:53:34;79.90;;;65.50;;
22425;SDS011;11380;50.822;15.790;2023-05-20T19:58:45;77.17;;;64.13;;
22425;SDS011;11380;50.822;15.790;2023-05-20T20:03:53;75.70;;;63.03;;
22425;SDS011;11380;50.822;15.790;2023-05-20T20:09:01;76.47;;;63.63;;
22425;SDS011;11380;50.822;15.790;2023-05-20T20:14:08;77.03;;;64.13;;
22425;SDS011;11380;50.822;15.790;2023-05-20T20:19:18;76.37;;;63.02;;
22425;SDS011;11380;50.822;15.790;2023-05-20T20:24:28;74.03;;;62.30;;
22425;SDS011;11380;50.822;15.790;2023-05-20T20:29:36;76.83;;;64.07;;
22425;SDS011;11380;50.822;15.790;2023-05-20T20:34:45;78.20;;;63.53;;
22425;SDS011;11380;50.822;15.790;2023-05-20T20:39:52;78.53;;;64.70;;
22425;SDS011;11380;50.822;15.790;2023-05-20T20:44:59;74.80;;;62.83;;
22425;SDS011;11380;50.822;15.790;2023-05-20T20:50:09;73.30;;;62.70;;
22425;SDS011;11380;50.822;15.790;2023-05-20T20:55:17;76.23;;;63.93;;
22425;SDS011;11380;50.822;15.790;2023-05-20T21:00:24;73.43;;;62.90;;
22425;SDS011;11380;50.822;15.790;2023-05-20T21:05:31;75.22;;;63.60;;
22425;SDS011;11380;50.822;15.790;2023-05-20T21:10:42;77.17;;;63.73;;
22425;SDS011;11380;50.822;15.790;2023-05-20T21:15:52;77.07;;;63.93;;
22425;SDS011;11380;50.822;15.790;2023-05-20T21:21:00;77.23;;;64.70;;
22425;SDS011;11380;50.822;15.790;2023-05-20T21:26:09;75.80;;;63.48;;
22425;SDS011;11380;50.822;15.790;2023-05-20T21:31:16;77.13;;;63.67;;
22425;SDS011;11380;50.822;15.790;2023-05-20T21:36:24;78.50;;;64.00;;
22425;SDS011;11380;50.822;15.790;2023-05-20T21:41:32;74.32;;;64.07;;
22425;SDS011;11380;50.822;15.790;2023-05-20T21:46:39;74.87;;;63.67;;
22425;SDS011;11380;50.822;15.790;2023-05-20T21:51:46;75.23;;;64.10;;
22425;SDS011;11380;50.822;15.790;2023-05-20T21:56:53;75.53;;;63.17;;
22425;SDS011;11380;50.822;15.790;2023-05-20T22:02:00;79.30;;;64.23;;
22425;SDS011;11380;50.822;15.790;2023-05-20T22:07:08;75.13;;;64.50;;
22425;SDS011;11380;50.822;15.790;2023-05-20T22:12:15;76.23;;;64.07;;
22425;SDS011;11380;50.822;15.790;2023-05-20T22:17:24;76.05;;;64.25;;
22425;SDS011;11380;50.822;15.790;2023-05-20T22:22:31;76.57;;;63.75;;
22425;SDS011;11380;50.822;15.790;2023-05-20T22:27:40;75.20;;;63.07;;
22425;SDS011;11380;50.822;15.790;2023-05-20T22:32:48;77.50;;;62.77;;
22425;SDS011;11380;50.822;15.790;2023-05-20T22:37:56;74.57;;;61.70;;
22425;SDS011;11380;50.822;15.790;2023-05-20T22:43:06;75.10;;;62.03;;
22425;SDS011;11380;50.822;15.790;2023-05-20T22:48:14;76.20;;;63.13;;
22425;SDS011;11380;50.822;15.790;2023-05-20T22:53:23;74.17;;;63.40;;
22425;SDS011;11380;50.822;15.790;2023-05-20T22:58:30;73.80;;;62.73;;
22425;SDS011;11380;50.822;15.790;2023-05-20T23:03:39;75.67;;;64.03;;
22425;SDS011;11380;50.822;15.790;2023-05-20T23:08:48;80.17;;;63.70;;
22425;SDS011;11380;50.822;15.790;2023-05-20T23:13:55;79.77;;;67.17;;
22425;SDS011;11380;50.822;15.790;2023-05-20T23:24:08;82.00;;;66.73;;
22425;SDS011;11380;50.822;15.790;2023-05-20T23:29:15;85.97;;;67.60;;
22425;SDS011;11380;50.822;15.790;2023-05-20T23:34:23;84.20;;;68.63;;
22425;SDS011;11380;50.822;15.790;2023-05-20T23:39:31;81.22;;;67.95;;
22425;SDS011;11380;50.822;15.790;2023-05-20T23:44:37;82.67;;;67.37;;
22425;SDS011;11380;50.822;15.790;2023-05-20T23:49:44;82.73;;;68.33;;
22425;SDS011;11380;50.822;15.790;2023-05-20T23:54:54;83.13;;;68.67;;
